Аэропорт: Якутск. Якутск

ICAO: UEEE

METAR:
2018/07/16 19:30
UEEE 161930Z 00000MPS 3200 BR NSC 14/14 Q1005 R23L/09//60 NOSIG RMK QFE745
METAR:
2018/07/16 18:23
TAF UEEE 161700Z 1618/1724 18003MPS 3200 HZ SCT030CB OVC080 
      TEMPO 1618/1624 0400 HZ VV003